Time;durP1;ratioP1;P1;durP2;ratioP2;P2;SDS_P1;SDS_P2;PMS_P1;PMS_P2;Temp;Humidity;BMP_temperature;BMP_pressure;BME280_temperature;BME280_humidity;BME280_pressure;Samples;Min_cycle;Max_cycle;Signal;HPM_P1;HPM_P2
2022/06/28 00:00:46;;;;;;;;;;;12.80;99.90;;;;;;5017340;28;19932;-65
2022/06/28 00:03:12;;;;;;;;;;;12.80;99.90;;;;;;5017489;28;19925;-65
2022/06/28 00:05:39;;;;;;;;;;;12.80;99.90;;;;;;5016941;28;19926;-65
2022/06/28 00:08:06;;;;;;;;;;;12.70;99.90;;;;;;5016469;28;19925;-65
2022/06/28 00:10:33;;;;;;;;;;;12.70;99.90;;;;;;5015807;28;20454;-65
2022/06/28 00:13:01;;;;;;;;;;;12.70;99.90;;;;;;5042217;28;19925;-65
2022/06/28 00:18:12;;;;;;;;;;;12.80;99.90;;;;;;5012644;28;19921;-65
2022/06/28 00:20:39;;;;;;;;;;;12.80;99.90;;;;;;5016851;28;19975;-65
2022/06/28 00:23:05;;;;;;;;;;;12.80;99.90;;;;;;5017184;28;19929;-65
2022/06/28 00:25:32;;;;;;;;;;;12.70;99.90;;;;;;5024882;28;19925;-65
2022/06/28 00:27:58;;;;;;;;;;;12.60;99.90;;;;;;5031323;23;19929;-64
2022/06/28 00:30:27;;;;;;;;;;;12.70;99.90;;;;;;5043991;28;19953;-63
2022/06/28 00:32:53;;;;;;;;;;;12.70;99.90;;;;;;5019713;28;19929;-64
2022/06/28 00:35:20;;;;;;;;;;;12.60;99.90;;;;;;5043373;28;19983;-63
2022/06/28 00:37:46;;;;;;;;;;;12.60;99.90;;;;;;5049399;28;19929;-64
2022/06/28 00:40:13;;;;;;;;;;;12.50;99.90;;;;;;5037839;28;20428;-64
2022/06/28 00:42:40;;;;;;;;;;;12.50;99.90;;;;;;5044296;28;19960;-63
2022/06/28 00:45:07;;;;;;;;;;;12.40;99.90;;;;;;5039136;28;19925;-65
2022/06/28 00:47:36;;;;;;;;;;;12.30;99.90;;;;;;5043436;28;19982;-64
2022/06/28 00:50:02;;;;;;;;;;;12.30;99.90;;;;;;5047885;28;20400;-63
2022/06/28 00:52:29;;;;;;;;;;;12.30;99.90;;;;;;5020694;28;19975;-65
2022/06/28 00:54:56;;;;;;;;;;;12.40;99.90;;;;;;5046636;28;20388;-63
2022/06/28 00:57:23;;;;;;;;;;;12.40;99.90;;;;;;5043864;28;20466;-63
2022/06/28 00:59:49;;;;;;;;;;;12.40;99.90;;;;;;5050906;28;19924;-64
2022/06/28 01:02:16;;;;;;;;;;;12.40;99.90;;;;;;5026491;28;19925;-64
2022/06/28 01:04:44;;;;;;;;;;;12.40;99.90;;;;;;5038822;28;19934;-60
2022/06/28 01:07:11;;;;;;;;;;;12.40;99.90;;;;;;5025542;28;19925;-63
2022/06/28 01:09:38;;;;;;;;;;;12.40;99.90;;;;;;5039265;28;20036;-63
2022/06/28 01:12:05;;;;;;;;;;;12.40;99.90;;;;;;5019523;28;19936;-63
2022/06/28 01:14:33;;;;;;;;;;;12.50;99.90;;;;;;5019955;28;19928;-64
2022/06/28 01:17:06;;;;;;;;;;;12.40;99.90;;;;;;5045282;28;19925;-63
2022/06/28 01:19:54;;;;;;;;;;;12.40;99.90;;;;;;5039813;28;19928;-65
2022/06/28 01:22:43;;;;;;;;;;;12.40;99.90;;;;;;5046998;28;19952;-64
2022/06/28 01:25:13;;;;;;;;;;;12.30;99.90;;;;;;5044452;28;19929;-63
2022/06/28 01:27:43;;;;;;;;;;;12.30;99.90;;;;;;5043958;28;20483;-64
2022/06/28 01:30:10;;;;;;;;;;;12.30;99.90;;;;;;5023885;28;19926;-63
2022/06/28 01:33:10;;;;;;;;;;;12.30;99.90;;;;;;5013093;28;20083;-62
2022/06/28 01:35:36;;;;;;;;;;;12.30;99.90;;;;;;5044218;28;19925;-63
2022/06/28 01:38:06;;;;;;;;;;;12.30;99.90;;;;;;5019650;28;19929;-64
2022/06/28 01:40:33;;;;;;;;;;;12.20;99.90;;;;;;5043882;28;19965;-63
2022/06/28 01:43:00;;;;;;;;;;;12.10;99.90;;;;;;5049157;28;20442;-64
2022/06/28 01:45:28;;;;;;;;;;;12.00;99.90;;;;;;5021984;28;20292;-64
2022/06/28 01:47:55;;;;;;;;;;;12.00;99.90;;;;;;5038066;28;19955;-63
2022/06/28 01:50:25;;;;;;;;;;;12.00;99.90;;;;;;5040896;28;19925;-63
2022/06/28 01:52:52;;;;;;;;;;;12.00;99.90;;;;;;5038838;28;20393;-63
2022/06/28 01:55:54;;;;;;;;;;;12.00;99.90;;;;;;4992452;28;20724;-63
2022/06/28 01:58:40;;;;;;;;;;;12.00;99.90;;;;;;5044688;28;20374;-63
2022/06/28 02:01:08;;;;;;;;;;;11.90;99.90;;;;;;5025888;28;19925;-62
2022/06/28 02:03:36;;;;;;;;;;;11.90;99.90;;;;;;5043155;28;19925;-64
2022/06/28 02:06:18;;;;;;;;;;;11.90;99.90;;;;;;5046050;28;19926;-63
2022/06/28 02:08:45;;;;;;;;;;;12.00;99.90;;;;;;5044094;28;19925;-63
2022/06/28 02:11:20;;;;;;;;;;;11.90;99.90;;;;;;5019612;28;20411;-62
2022/06/28 02:13:50;;;;;;;;;;;11.90;99.90;;;;;;5038967;28;20402;-63
2022/06/28 02:16:17;;;;;;;;;;;11.90;99.90;;;;;;5017878;28;19925;-63
2022/06/28 02:18:44;;;;;;;;;;;11.90;99.90;;;;;;5027866;28;19933;-62
2022/06/28 02:21:12;;;;;;;;;;;11.90;99.90;;;;;;5044596;28;19972;-64
2022/06/28 02:23:39;;;;;;;;;;;12.00;99.90;;;;;;5044363;28;19925;-63
2022/06/28 02:26:07;;;;;;;;;;;11.90;99.90;;;;;;5022596;28;19925;-64
2022/06/28 02:28:35;;;;;;;;;;;11.80;99.90;;;;;;5046384;28;19929;-64
2022/06/28 02:31:08;;;;;;;;;;;11.90;99.90;;;;;;5023075;28;19924;-63
2022/06/28 02:33:35;;;;;;;;;;;11.90;99.90;;;;;;5021879;28;19948;-64
2022/06/28 02:41:30;;;;;;;;;;;11.80;99.90;;;;;;5021169;28;20419;-63
2022/06/28 02:43:58;;;;;;;;;;;11.80;99.90;;;;;;5016250;28;19925;-63
2022/06/28 02:46:25;;;;;;;;;;;11.70;99.90;;;;;;5019132;28;19940;-63
2022/06/28 02:48:52;;;;;;;;;;;11.70;99.90;;;;;;5040211;28;19932;-63
2022/06/28 02:51:20;;;;;;;;;;;11.70;99.90;;;;;;5046513;28;19932;-63
2022/06/28 02:53:47;;;;;;;;;;;11.70;99.90;;;;;;5016938;28;19948;-64
2022/06/28 02:56:14;;;;;;;;;;;11.70;99.90;;;;;;5046282;28;20278;-65
2022/06/28 02:58:40;;;;;;;;;;;11.60;99.90;;;;;;5042156;28;19932;-63
2022/06/28 03:01:09;;;;;;;;;;;11.60;99.90;;;;;;5047301;28;19931;-64
2022/06/28 03:03:36;;;;;;;;;;;11.60;99.90;;;;;;5018295;28;19972;-63
2022/06/28 03:06:03;;;;;;;;;;;11.60;99.90;;;;;;5043243;28;19979;-62
2022/06/28 03:08:30;;;;;;;;;;;11.60;99.90;;;;;;5018429;28;19925;-63
2022/06/28 03:10:58;;;;;;;;;;;11.50;99.90;;;;;;5041182;28;19929;-65
2022/06/28 03:13:25;;;;;;;;;;;11.50;99.90;;;;;;5045126;28;19928;-63
2022/06/28 03:15:52;;;;;;;;;;;11.40;99.90;;;;;;5042191;28;20039;-63
2022/06/28 03:18:20;;;;;;;;;;;11.40;99.90;;;;;;5046864;28;20399;-63
2022/06/28 03:20:47;;;;;;;;;;;11.40;99.90;;;;;;5043546;28;19932;-64
2022/06/28 03:23:15;;;;;;;;;;;11.40;99.90;;;;;;5040509;28;20382;-64
2022/06/28 03:25:44;;;;;;;;;;;11.40;99.90;;;;;;5010591;28;19952;-64
2022/06/28 03:28:11;;;;;;;;;;;11.40;99.90;;;;;;5042686;28;19975;-64
2022/06/28 03:30:38;;;;;;;;;;;11.40;99.90;;;;;;5045101;28;19933;-63
2022/06/28 03:33:05;;;;;;;;;;;11.50;99.90;;;;;;5045815;28;19928;-64
2022/06/28 03:35:37;;;;;;;;;;;11.50;99.90;;;;;;5041468;28;20351;-64
2022/06/28 03:38:05;;;;;;;;;;;11.50;99.90;;;;;;5024446;28;19940;-63
2022/06/28 03:40:55;;;;;;;;;;;11.50;99.90;;;;;;5025752;28;20022;-65
2022/06/28 03:43:22;;;;;;;;;;;11.50;99.90;;;;;;5045601;28;19925;-63
2022/06/28 03:45:51;;;;;;;;;;;11.50;99.90;;;;;;5041774;28;19940;-63
2022/06/28 03:48:33;;;;;;;;;;;11.50;99.90;;;;;;5043253;28;19925;-64
2022/06/28 03:51:37;;;;;;;;;;;11.60;99.90;;;;;;5027523;28;20396;-63
2022/06/28 03:54:20;;;;;;;;;;;11.60;99.90;;;;;;5044009;28;19925;-63
2022/06/28 03:56:56;;;;;;;;;;;11.60;99.90;;;;;;5022136;28;20332;-63
2022/06/28 03:59:23;;;;;;;;;;;11.60;99.90;;;;;;5045248;28;19926;-63
2022/06/28 04:01:50;;;;;;;;;;;11.60;99.90;;;;;;5044962;28;19940;-64
2022/06/28 04:04:17;;;;;;;;;;;11.70;99.90;;;;;;5040308;28;19996;-64
2022/06/28 04:06:48;;;;;;;;;;;11.70;99.90;;;;;;5038407;28;19972;-63
2022/06/28 04:09:16;;;;;;;;;;;11.70;99.90;;;;;;5041102;28;19929;-65
2022/06/28 04:11:47;;;;;;;;;;;11.70;99.90;;;;;;5036610;28;19987;-64
2022/06/28 04:14:14;;;;;;;;;;;11.70;99.90;;;;;;5044779;28;19936;-60
2022/06/28 04:16:42;;;;;;;;;;;11.70;99.90;;;;;;5025362;28;19978;-63
2022/06/28 04:19:11;;;;;;;;;;;11.80;99.90;;;;;;5048091;28;19939;-63
2022/06/28 04:21:45;;;;;;;;;;;12.00;99.90;;;;;;5040877;28;19929;-63
2022/06/28 04:24:19;;;;;;;;;;;12.00;99.90;;;;;;5048252;28;19968;-63
2022/06/28 04:27:05;;;;;;;;;;;12.00;99.90;;;;;;5038633;28;19933;-62
2022/06/28 04:29:32;;;;;;;;;;;11.90;99.90;;;;;;5050837;28;19925;-64
2022/06/28 04:31:59;;;;;;;;;;;11.90;99.90;;;;;;5042657;28;20385;-63
2022/06/28 04:34:27;;;;;;;;;;;11.90;99.90;;;;;;5024166;28;19925;-62
2022/06/28 04:36:57;;;;;;;;;;;11.90;99.90;;;;;;5018185;28;20385;-60
2022/06/28 04:39:25;;;;;;;;;;;11.90;99.90;;;;;;5017394;28;19925;-62
2022/06/28 04:42:05;;;;;;;;;;;11.90;99.90;;;;;;5019592;28;19929;-63
2022/06/28 04:44:35;;;;;;;;;;;12.00;99.90;;;;;;5049397;28;19930;-62
2022/06/28 04:47:02;;;;;;;;;;;12.10;99.90;;;;;;5047505;28;20335;-59
2022/06/28 04:49:31;;;;;;;;;;;12.30;99.90;;;;;;5023778;28;19925;-62
2022/06/28 04:51:58;;;;;;;;;;;12.40;99.90;;;;;;5045392;28;20385;-63
2022/06/28 04:54:32;;;;;;;;;;;12.40;99.90;;;;;;5024815;28;19982;-63
2022/06/28 04:57:18;;;;;;;;;;;12.50;99.90;;;;;;5026952;28;19925;-63
2022/06/28 04:59:54;;;;;;;;;;;12.60;99.90;;;;;;5040931;28;19952;-64
2022/06/28 05:02:34;;;;;;;;;;;12.70;99.90;;;;;;5017469;28;19972;-63
2022/06/28 05:05:03;;;;;;;;;;;12.80;99.90;;;;;;5013985;28;19925;-64
2022/06/28 05:07:36;;;;;;;;;;;12.80;99.90;;;;;;5038600;28;19979;-63
2022/06/28 05:10:09;;;;;;;;;;;12.80;99.90;;;;;;5015210;28;19933;-63
2022/06/28 05:12:41;;;;;;;;;;;12.90;99.90;;;;;;5014953;28;20008;-63
2022/06/28 05:15:09;;;;;;;;;;;13.00;99.90;;;;;;5018538;28;19964;-65
2022/06/28 05:17:58;;;;;;;;;;;13.10;99.90;;;;;;5022930;28;20031;-64
2022/06/28 05:20:26;;;;;;;;;;;13.10;99.90;;;;;;5022006;28;19932;-63
2022/06/28 05:22:53;;;;;;;;;;;13.20;99.90;;;;;;5016210;28;19925;-64
2022/06/28 05:25:41;;;;;;;;;;;13.40;99.90;;;;;;5031234;28;19972;-63
2022/06/28 05:28:09;;;;;;;;;;;13.50;99.90;;;;;;5015045;28;19925;-64
2022/06/28 05:30:36;;;;;;;;;;;13.50;99.90;;;;;;5031715;28;19929;-63
2022/06/28 05:33:03;;;;;;;;;;;13.70;99.90;;;;;;5017779;28;19987;-63
2022/06/28 05:35:30;;;;;;;;;;;13.70;99.90;;;;;;5013255;28;19929;-63
2022/06/28 05:37:57;;;;;;;;;;;13.80;99.90;;;;;;5012097;28;19925;-64
2022/06/28 05:40:24;;;;;;;;;;;13.90;99.90;;;;;;5015594;28;19932;-63
2022/06/28 05:42:52;;;;;;;;;;;14.00;99.90;;;;;;5014019;28;19940;-63
2022/06/28 05:45:19;;;;;;;;;;;14.10;99.90;;;;;;5017467;28;19926;-61
2022/06/28 05:47:46;;;;;;;;;;;14.30;99.90;;;;;;5018136;28;19928;-67
2022/06/28 05:50:13;;;;;;;;;;;14.30;99.90;;;;;;5031821;28;19972;-62
2022/06/28 05:52:40;;;;;;;;;;;14.50;99.90;;;;;;5014651;28;19932;-62
2022/06/28 05:55:07;;;;;;;;;;;14.50;99.90;;;;;;5014321;28;19925;-63
2022/06/28 05:57:34;;;;;;;;;;;14.60;99.90;;;;;;5031018;28;19931;-61
2022/06/28 06:00:03;;;;;;;;;;;14.70;99.90;;;;;;5026607;28;19979;-64
2022/06/28 06:02:41;;;;;;;;;;;14.80;99.90;;;;;;5030134;28;19979;-63
2022/06/28 06:05:08;;;;;;;;;;;14.90;99.90;;;;;;5012859;28;19992;-63
2022/06/28 06:07:35;;;;;;;;;;;15.00;99.90;;;;;;5015428;28;19932;-64
2022/06/28 06:10:03;;;;;;;;;;;15.00;99.90;;;;;;5013137;28;19932;-62
2022/06/28 06:12:31;;;;;;;;;;;15.20;99.90;;;;;;5015193;28;19932;-63
2022/06/28 06:14:58;;;;;;;;;;;15.20;99.90;;;;;;5032898;28;19925;-62
2022/06/28 06:17:26;;;;;;;;;;;15.30;99.90;;;;;;5014851;28;19932;-62
2022/06/28 06:19:53;;;;;;;;;;;15.40;99.90;;;;;;5013473;28;19952;-62
2022/06/28 06:22:19;;;;;;;;;;;15.50;99.90;;;;;;5011586;28;19929;-63
2022/06/28 06:24:47;;;;;;;;;;;15.60;99.90;;;;;;5013539;28;20015;-62
2022/06/28 06:27:19;;;;;;;;;;;15.70;99.90;;;;;;5015470;28;19925;-62
2022/06/28 06:29:46;;;;;;;;;;;15.80;99.90;;;;;;5013154;28;19936;-63
2022/06/28 06:32:20;;;;;;;;;;;15.90;99.90;;;;;;5019888;28;19925;-64
2022/06/28 06:35:09;;;;;;;;;;;16.00;99.90;;;;;;5031360;28;19925;-66
2022/06/28 06:37:36;;;;;;;;;;;16.10;99.90;;;;;;5041970;28;19932;-62
2022/06/28 06:40:04;;;;;;;;;;;16.10;99.90;;;;;;5040043;28;19932;-63
2022/06/28 06:42:31;;;;;;;;;;;16.20;99.90;;;;;;5023013;28;19929;-62
2022/06/28 06:45:03;;;;;;;;;;;16.20;99.90;;;;;;5017306;28;19925;-64
2022/06/28 06:47:30;;;;;;;;;;;16.30;99.90;;;;;;5023114;28;19931;-63
2022/06/28 06:49:57;;;;;;;;;;;16.40;99.90;;;;;;5043484;28;20000;-63
2022/06/28 06:52:25;;;;;;;;;;;16.40;99.90;;;;;;5021270;28;19955;-63
2022/06/28 06:54:52;;;;;;;;;;;16.50;99.90;;;;;;5042879;28;19964;-63
2022/06/28 06:57:20;;;;;;;;;;;16.50;99.90;;;;;;5019382;28;19948;-62
2022/06/28 06:59:47;;;;;;;;;;;16.50;99.90;;;;;;5028814;28;19929;-63
2022/06/28 07:02:14;;;;;;;;;;;16.60;99.90;;;;;;5018525;28;20339;-64
2022/06/28 07:04:51;;;;;;;;;;;16.60;99.90;;;;;;5014313;28;19987;-63
2022/06/28 07:07:18;;;;;;;;;;;16.70;99.90;;;;;;5015361;28;19925;-63
2022/06/28 07:09:46;;;;;;;;;;;16.80;99.90;;;;;;5040217;28;19963;-64
2022/06/28 07:12:13;;;;;;;;;;;16.80;99.90;;;;;;5021567;28;20290;-63
2022/06/28 07:14:40;;;;;;;;;;;17.00;99.90;;;;;;5037934;28;19925;-63
2022/06/28 07:17:07;;;;;;;;;;;17.00;99.90;;;;;;5045697;28;19924;-62
2022/06/28 07:19:34;;;;;;;;;;;17.00;99.90;;;;;;5039996;28;19932;-62
2022/06/28 07:22:01;;;;;;;;;;;17.10;99.90;;;;;;5047239;28;19951;-63
2022/06/28 07:24:27;;;;;;;;;;;17.20;99.90;;;;;;5041995;28;20380;-62
2022/06/28 07:26:56;;;;;;;;;;;17.20;99.90;;;;;;5044673;28;20411;-64
2022/06/28 07:29:23;;;;;;;;;;;17.30;99.90;;;;;;5042454;28;20405;-63
2022/06/28 07:31:50;;;;;;;;;;;17.40;99.90;;;;;;5019213;28;19925;-63
2022/06/28 07:34:17;;;;;;;;;;;17.40;99.90;;;;;;5043250;28;19932;-63
2022/06/28 07:36:44;;;;;;;;;;;17.50;99.90;;;;;;5038873;28;19925;-63
2022/06/28 07:39:11;;;;;;;;;;;17.60;99.90;;;;;;5044673;28;19955;-65
2022/06/28 07:41:58;;;;;;;;;;;17.60;99.90;;;;;;5040208;28;19931;-63
2022/06/28 07:44:43;;;;;;;;;;;17.70;99.90;;;;;;5039548;28;19932;-63
2022/06/28 07:47:10;;;;;;;;;;;17.80;99.90;;;;;;5018674;28;19925;-65
2022/06/28 07:52:35;;;;;;;;;;;18.00;99.90;;;;;;5019508;28;19928;-64
2022/06/28 07:55:05;;;;;;;;;;;18.00;99.90;;;;;;5049358;28;20015;-62
2022/06/28 07:57:56;;;;;;;;;;;18.10;99.90;;;;;;5027832;28;20399;-63
2022/06/28 08:00:23;;;;;;;;;;;18.00;99.90;;;;;;5048113;28;19975;-63
2022/06/28 08:03:04;;;;;;;;;;;18.00;99.90;;;;;;5045914;28;19944;-62
2022/06/28 08:05:31;;;;;;;;;;;18.20;99.90;;;;;;5043961;28;20312;-63
2022/06/28 08:07:58;;;;;;;;;;;18.00;99.90;;;;;;5049897;28;19931;-63
2022/06/28 08:10:27;;;;;;;;;;;18.00;99.90;;;;;;5045230;28;19968;-64
2022/06/28 08:12:57;;;;;;;;;;;18.10;99.90;;;;;;5050409;28;20374;-63
2022/06/28 08:15:24;;;;;;;;;;;18.20;99.90;;;;;;5044859;28;19932;-63
2022/06/28 08:17:51;;;;;;;;;;;18.30;99.90;;;;;;5045600;28;19948;-64
2022/06/28 08:20:18;;;;;;;;;;;18.50;99.90;;;;;;5026004;28;19929;-64
2022/06/28 08:22:46;;;;;;;;;;;18.60;99.90;;;;;;5046874;28;19925;-64
2022/06/28 08:25:13;;;;;;;;;;;18.60;99.90;;;;;;5025469;28;19960;-63
2022/06/28 08:27:40;;;;;;;;;;;18.70;99.90;;;;;;5029467;28;19928;-63
2022/06/28 08:30:10;;;;;;;;;;;18.70;99.90;;;;;;5018029;28;19925;-63
2022/06/28 08:32:38;;;;;;;;;;;18.80;99.90;;;;;;5025163;28;20028;-65
2022/06/28 08:35:05;;;;;;;;;;;18.90;99.90;;;;;;5043699;28;19924;-63
2022/06/28 08:37:32;;;;;;;;;;;18.80;99.90;;;;;;5048385;28;19932;-63
2022/06/28 08:39:59;;;;;;;;;;;18.90;99.90;;;;;;5045775;28;19929;-64
2022/06/28 08:42:26;;;;;;;;;;;18.90;99.90;;;;;;5026387;28;19944;-64
2022/06/28 08:44:54;;;;;;;;;;;18.90;99.90;;;;;;5046209;28;20277;-64
2022/06/28 08:47:22;;;;;;;;;;;19.10;99.90;;;;;;5044113;28;19929;-64
2022/06/28 08:49:51;;;;;;;;;;;19.30;99.90;;;;;;5050560;28;19978;-62
2022/06/28 08:52:19;;;;;;;;;;;19.40;99.90;;;;;;5024497;28;20016;-64
2022/06/28 08:54:47;;;;;;;;;;;19.60;99.90;;;;;;5046728;28;19947;-63
2022/06/28 08:57:13;;;;;;;;;;;19.80;99.90;;;;;;5024816;28;19931;-64
2022/06/28 08:59:40;;;;;;;;;;;19.80;99.90;;;;;;5049786;28;19925;-62
2022/06/28 09:02:07;;;;;;;;;;;19.80;99.90;;;;;;5045974;28;19932;-64
2022/06/28 09:04:35;;;;;;;;;;;19.80;99.90;;;;;;5042949;28;19928;-62
2022/06/28 09:07:02;;;;;;;;;;;19.90;99.90;;;;;;5019121;28;19925;-63
2022/06/28 09:09:29;;;;;;;;;;;20.00;99.90;;;;;;5037191;28;19932;-64
2022/06/28 09:11:56;;;;;;;;;;;20.00;99.90;;;;;;5044222;28;20020;-64
2022/06/28 09:14:24;;;;;;;;;;;20.10;99.90;;;;;;5020494;28;19933;-64
2022/06/28 09:16:51;;;;;;;;;;;20.10;99.90;;;;;;5048491;28;19925;-63
2022/06/28 09:19:18;;;;;;;;;;;20.10;99.90;;;;;;5041491;28;19929;-63
2022/06/28 09:21:46;;;;;;;;;;;20.10;99.90;;;;;;5046265;28;19987;-63
2022/06/28 09:24:23;;;;;;;;;;;20.30;99.90;;;;;;5044883;28;19970;-62
2022/06/28 09:26:52;;;;;;;;;;;20.40;99.90;;;;;;5013461;28;19925;-64
2022/06/28 09:29:19;;;;;;;;;;;20.60;99.90;;;;;;5045592;28;19929;-62
2022/06/28 09:31:45;;;;;;;;;;;20.70;99.90;;;;;;5018764;28;19976;-63
2022/06/28 09:34:13;;;;;;;;;;;20.80;99.90;;;;;;5018849;28;19925;-63
2022/06/28 09:36:41;;;;;;;;;;;21.00;99.90;;;;;;5020907;28;19929;-63
2022/06/28 09:39:14;;;;;;;;;;;21.00;99.90;;;;;;5021079;28;20381;-63
2022/06/28 09:41:43;;;;;;;;;;;21.00;99.90;;;;;;5021835;28;19979;-64
2022/06/28 09:44:10;;;;;;;;;;;21.10;99.90;;;;;;5041838;28;20396;-64
2022/06/28 09:46:37;;;;;;;;;;;21.20;99.90;;;;;;5041491;28;20356;-64
2022/06/28 09:49:04;;;;;;;;;;;21.30;99.90;;;;;;5016215;28;20348;-65
2022/06/28 09:51:32;;;;;;;;;;;21.50;99.90;;;;;;5033463;28;19925;-63
2022/06/28 09:54:03;;;;;;;;;;;21.50;99.90;;;;;;5013400;28;19936;-63
2022/06/28 09:56:34;;;;;;;;;;;21.60;99.90;;;;;;5014604;28;19925;-69
2022/06/28 09:59:00;;;;;;;;;;;21.80;99.90;;;;;;5016823;28;19925;-64
2022/06/28 10:01:27;;;;;;;;;;;21.90;99.90;;;;;;5013973;28;19933;-64
2022/06/28 10:03:54;;;;;;;;;;;21.90;99.90;;;;;;5013876;28;20313;-64
2022/06/28 10:06:21;;;;;;;;;;;21.70;99.90;;;;;;5013391;28;20313;-64
2022/06/28 10:08:48;;;;;;;;;;;21.80;99.90;;;;;;5013443;28;19929;-62
2022/06/28 10:11:15;;;;;;;;;;;22.00;99.90;;;;;;5015588;28;19925;-64
2022/06/28 10:16:35;;;;;;;;;;;22.20;99.90;;;;;;5013863;28;20018;-64
2022/06/28 10:19:03;;;;;;;;;;;22.40;99.90;;;;;;5013515;28;19929;-64
2022/06/28 10:21:43;;;;;;;;;;;22.50;99.90;;;;;;5028503;28;19925;-64
2022/06/28 10:24:10;;;;;;;;;;;22.50;99.90;;;;;;5013573;28;19929;-65
2022/06/28 10:26:37;;;;;;;;;;;22.60;99.90;;;;;;5013669;28;20412;-63
2022/06/28 10:29:06;;;;;;;;;;;22.60;99.90;;;;;;5013091;28;19929;-65
2022/06/28 10:31:35;;;;;;;;;;;22.70;99.90;;;;;;5012506;28;19925;-64
2022/06/28 10:34:02;;;;;;;;;;;22.70;99.90;;;;;;5013270;28;19932;-63
2022/06/28 10:36:32;;;;;;;;;;;22.80;99.90;;;;;;5013619;28;20023;-64
2022/06/28 10:39:13;;;;;;;;;;;22.90;99.90;;;;;;5013544;28;20408;-63
2022/06/28 10:41:40;;;;;;;;;;;23.00;99.90;;;;;;5013120;28;20309;-64
2022/06/28 10:44:09;;;;;;;;;;;23.20;99.90;;;;;;5013512;28;19965;-64
2022/06/28 10:46:36;;;;;;;;;;;23.40;99.90;;;;;;5013614;28;19936;-65
2022/06/28 10:49:07;;;;;;;;;;;23.40;99.90;;;;;;5012956;28;19932;-65
2022/06/28 10:51:35;;;;;;;;;;;23.60;99.90;;;;;;5028959;28;19932;-63
2022/06/28 10:54:04;;;;;;;;;;;23.60;99.90;;;;;;5012546;28;19929;-66
2022/06/28 10:56:31;;;;;;;;;;;23.70;99.90;;;;;;5013561;28;19937;-62
2022/06/28 10:58:58;;;;;;;;;;;23.90;99.90;;;;;;5008599;28;19925;-65
2022/06/28 11:01:43;;;;;;;;;;;23.90;99.90;;;;;;5013403;28;19925;-64
2022/06/28 11:04:12;;;;;;;;;;;24.10;99.90;;;;;;5012956;28;19929;-64
2022/06/28 11:06:40;;;;;;;;;;;24.10;99.90;;;;;;5012831;28;19929;-63
2022/06/28 11:09:09;;;;;;;;;;;24.30;99.90;;;;;;5013074;28;19925;-64
2022/06/28 11:11:36;;;;;;;;;;;24.50;99.90;;;;;;5014715;28;20419;-64
2022/06/28 11:14:21;;;;;;;;;;;24.80;99.90;;;;;;5012771;28;20300;-64
2022/06/28 11:16:48;;;;;;;;;;;24.90;99.90;;;;;;5007594;28;20464;-65
2022/06/28 11:19:17;;;;;;;;;;;25.20;99.90;;;;;;5012548;28;20385;-65
2022/06/28 11:21:44;;;;;;;;;;;25.70;99.90;;;;;;5012118;28;19925;-64
2022/06/28 11:24:11;;;;;;;;;;;26.00;99.90;;;;;;5015551;28;19925;-67
2022/06/28 11:29:22;;;;;;;;;;;25.90;99.90;;;;;;5015762;28;19932;-64
2022/06/28 11:31:49;;;;;;;;;;;26.10;99.90;;;;;;5016434;28;19925;-66
2022/06/28 11:34:24;;;;;;;;;;;26.10;99.90;;;;;;5016748;28;19925;-64
2022/06/28 11:36:54;;;;;;;;;;;26.30;99.90;;;;;;5028838;28;19983;-65
2022/06/28 11:39:23;;;;;;;;;;;26.60;99.90;;;;;;5016528;28;19925;-64
2022/06/28 11:41:50;;;;;;;;;;;27.00;99.90;;;;;;5016590;28;19926;-64
2022/06/28 11:44:17;;;;;;;;;;;27.20;99.90;;;;;;5016183;28;19940;-64
2022/06/28 11:46:45;;;;;;;;;;;27.90;99.90;;;;;;5027387;28;19929;-64
2022/06/28 11:49:12;;;;;;;;;;;29.40;99.90;;;;;;5015973;28;19932;-65
2022/06/28 11:51:42;;;;;;;;;;;30.50;99.90;;;;;;5016961;28;19933;-65
2022/06/28 11:54:09;;;;;;;;;;;31.00;99.90;;;;;;5014055;28;19925;-65
2022/06/28 11:56:43;;;;;;;;;;;30.40;99.90;;;;;;5016208;28;19929;-65
2022/06/28 11:59:10;;;;;;;;;;;30.00;99.90;;;;;;5031763;28;19929;-64
2022/06/28 12:01:38;;;;;;;;;;;28.90;99.90;;;;;;5013865;28;19929;-64
2022/06/28 12:04:06;;;;;;;;;;;28.10;99.90;;;;;;5030338;28;19925;-65
2022/06/28 12:06:33;;;;;;;;;;;28.50;99.90;;;;;;5014559;28;19925;-65
2022/06/28 12:09:03;;;;;;;;;;;29.70;99.90;;;;;;5015508;28;19983;-67
2022/06/28 12:11:31;;;;;;;;;;;30.90;99.90;;;;;;5031662;28;19925;-69
2022/06/28 12:13:59;;;;;;;;;;;31.60;99.90;;;;;;5011620;28;19960;-64
2022/06/28 12:16:28;;;;;;;;;;;32.70;99.90;;;;;;5016168;28;19925;-66
2022/06/28 12:18:56;;;;;;;;;;;33.60;99.90;;;;;;5015901;28;19925;-63
2022/06/28 12:21:23;;;;;;;;;;;32.70;99.90;;;;;;5015899;28;19925;-64
2022/06/28 12:23:51;;;;;;;;;;;31.10;99.90;;;;;;5015256;28;19929;-65
2022/06/28 12:26:19;;;;;;;;;;;30.40;99.90;;;;;;5015572;28;19957;-66
2022/06/28 12:28:46;;;;;;;;;;;30.30;99.90;;;;;;5008193;28;20518;-64
2022/06/28 12:31:13;;;;;;;;;;;31.30;99.90;;;;;;5013424;28;19929;-64
2022/06/28 12:33:39;;;;;;;;;;;32.40;99.90;;;;;;5014434;28;19929;-63
2022/06/28 12:36:06;;;;;;;;;;;32.10;99.90;;;;;;5015647;28;19925;-64
2022/06/28 12:38:33;;;;;;;;;;;32.20;99.90;;;;;;5015783;28;20446;-64
2022/06/28 12:41:00;;;;;;;;;;;32.50;99.90;;;;;;5015701;28;19968;-65
2022/06/28 12:43:28;;;;;;;;;;;32.80;99.90;;;;;;5014486;28;20308;-65
2022/06/28 12:45:55;;;;;;;;;;;32.30;99.90;;;;;;5010166;28;20411;-65
2022/06/28 12:48:22;;;;;;;;;;;32.10;99.90;;;;;;5015141;28;19929;-65
2022/06/28 12:50:49;;;;;;;;;;;31.60;99.90;;;;;;5015027;28;19944;-65
2022/06/28 12:53:16;;;;;;;;;;;31.00;99.90;;;;;;5012819;28;19925;-66
2022/06/28 12:55:42;;;;;;;;;;;31.50;99.90;;;;;;5015289;28;19929;-64
2022/06/28 12:58:09;;;;;;;;;;;33.10;99.90;;;;;;5015536;28;19925;-65
2022/06/28 13:00:37;;;;;;;;;;;33.10;99.90;;;;;;5011154;28;19932;-66
2022/06/28 13:03:05;;;;;;;;;;;32.60;99.90;;;;;;5011753;28;19929;-65
2022/06/28 13:05:32;;;;;;;;;;;33.10;99.90;;;;;;5014827;28;19936;-64
2022/06/28 13:08:00;;;;;;;;;;;34.00;99.90;;;;;;5012271;28;19925;-65
2022/06/28 13:10:27;;;;;;;;;;;34.70;99.90;;;;;;5013654;28;20432;-65
2022/06/28 13:12:54;;;;;;;;;;;33.60;99.90;;;;;;5014861;28;19925;-64
2022/06/28 13:15:20;;;;;;;;;;;34.00;99.90;;;;;;5015307;28;19929;-64
2022/06/28 13:17:49;;;;;;;;;;;33.90;99.90;;;;;;5014963;28;19929;-65
2022/06/28 13:20:18;;;;;;;;;;;32.30;99.90;;;;;;5014469;28;19929;-64
2022/06/28 13:22:45;;;;;;;;;;;31.10;99.90;;;;;;5008867;28;19925;-64
2022/06/28 13:25:12;;;;;;;;;;;30.90;99.90;;;;;;5014204;28;20411;-65
2022/06/28 13:27:39;;;;;;;;;;;32.10;99.90;;;;;;5012679;28;19932;-65
2022/06/28 13:30:06;;;;;;;;;;;32.70;99.90;;;;;;5010286;28;19929;-64
2022/06/28 13:32:34;;;;;;;;;;;32.90;99.90;;;;;;5010694;28;19926;-65
2022/06/28 13:35:03;;;;;;;;;;;32.60;99.90;;;;;;5009827;28;19925;-64
2022/06/28 13:37:30;;;;;;;;;;;32.50;99.90;;;;;;5010630;28;19929;-64
2022/06/28 13:39:57;;;;;;;;;;;33.40;99.90;;;;;;5029183;28;19932;-65
2022/06/28 13:42:24;;;;;;;;;;;34.40;99.90;;;;;;5008922;28;19937;-64
2022/06/28 13:44:52;;;;;;;;;;;34.90;99.90;;;;;;5011689;28;19925;-65
2022/06/28 13:47:19;;;;;;;;;;;35.30;99.90;;;;;;5012363;28;19925;-65
2022/06/28 13:49:46;;;;;;;;;;;34.70;99.90;;;;;;5011604;28;19925;-64
2022/06/28 13:52:14;;;;;;;;;;;34.50;99.90;;;;;;5012443;28;20515;-64
2022/06/28 13:54:41;;;;;;;;;;;33.90;99.90;;;;;;5031017;28;19956;-63
2022/06/28 13:57:08;;;;;;;;;;;33.40;99.90;;;;;;5027699;28;20447;-63
2022/06/28 13:59:35;;;;;;;;;;;34.10;99.90;;;;;;5012545;28;20431;-65
2022/06/28 14:02:02;;;;;;;;;;;35.20;99.90;;;;;;5010377;28;19979;-68
2022/06/28 14:04:29;;;;;;;;;;;35.20;99.90;;;;;;5013357;28;19931;-64
2022/06/28 14:06:55;;;;;;;;;;;35.00;99.90;;;;;;5008769;28;19925;-64
2022/06/28 14:09:24;;;;;;;;;;;34.20;99.90;;;;;;5018715;28;19925;-64
2022/06/28 14:11:50;;;;;;;;;;;33.30;99.90;;;;;;5005542;28;19929;-64
2022/06/28 14:14:18;;;;;;;;;;;32.20;99.90;;;;;;4995417;28;20405;-64
2022/06/28 14:16:44;;;;;;;;;;;31.80;99.90;;;;;;4994862;28;19972;-65
2022/06/28 14:19:11;;;;;;;;;;;31.50;99.90;;;;;;4994559;28;19930;-64
2022/06/28 14:21:38;;;;;;;;;;;31.20;99.90;;;;;;4995248;28;19933;-65
2022/06/28 14:24:05;;;;;;;;;;;30.60;99.90;;;;;;4994240;28;19926;-64
2022/06/28 14:26:33;;;;;;;;;;;30.00;99.90;;;;;;4994852;28;19925;-64
2022/06/28 14:29:00;;;;;;;;;;;29.60;99.90;;;;;;4994541;28;19932;-64
2022/06/28 14:31:27;;;;;;;;;;;29.10;99.90;;;;;;4994759;28;19933;-64
2022/06/28 14:33:55;;;;;;;;;;;29.00;99.90;;;;;;5001080;28;19925;-64
2022/06/28 14:36:22;;;;;;;;;;;28.90;99.90;;;;;;5011772;28;19933;-64
2022/06/28 14:38:49;;;;;;;;;;;29.10;99.90;;;;;;5002004;28;19952;-64
2022/06/28 14:41:15;;;;;;;;;;;29.60;99.90;;;;;;4997545;28;19948;-67
2022/06/28 14:43:44;;;;;;;;;;;30.20;99.90;;;;;;5001717;28;20431;-65